createdAt,value
2022-10-18T00:02:20.747Z,17.93
2022-10-18T00:04:50.348Z,17.94
2022-10-18T00:07:18.864Z,17.94
2022-10-18T00:09:47.374Z,17.94
2022-10-18T00:12:16.110Z,17.94
2022-10-18T00:14:44.620Z,17.95
2022-10-18T00:17:12.804Z,17.96
2022-10-18T00:19:40.976Z,17.97
2022-10-18T00:22:10.562Z,17.97
2022-10-18T00:24:39.084Z,17.97
2022-10-18T00:27:07.640Z,17.95
2022-10-18T00:29:36.270Z,17.92
2022-10-18T00:32:04.908Z,17.88
2022-10-18T00:34:33.411Z,17.86
2022-10-18T00:37:01.923Z,17.85
2022-10-18T00:39:31.553Z,17.83
2022-10-18T00:41:59.804Z,17.81
2022-10-18T00:45:07.349Z,17.77
2022-10-18T00:47:36.810Z,17.75
2022-10-18T00:50:08.585Z,17.72
2022-10-18T00:52:41.598Z,17.71
2022-10-18T00:55:12.414Z,17.70
2022-10-18T00:57:44.328Z,17.68
2022-10-18T01:00:15.017Z,17.67
2022-10-18T01:02:46.332Z,17.65
2022-10-18T01:05:16.878Z,17.63
2022-10-18T01:08:16.091Z,17.61
2022-10-18T01:10:56.830Z,17.61
2022-10-18T01:13:41.509Z,17.58
2022-10-18T01:16:21.158Z,17.53
2022-10-18T01:18:56.088Z,17.50
2022-10-18T01:21:39.164Z,17.48
2022-10-18T01:25:04.641Z,17.45
2022-10-18T01:27:50.693Z,17.44
2022-10-18T01:30:47.244Z,17.42
2022-10-18T01:33:29.263Z,17.40
2022-10-18T01:36:05.396Z,17.40
2022-10-18T01:38:36.933Z,17.39
2022-10-18T01:41:11.745Z,17.38
2022-10-18T01:43:45.296Z,17.37
2022-10-18T01:46:21.121Z,17.34
2022-10-18T01:48:50.148Z,17.34
2022-10-18T01:51:21.085Z,17.34
2022-10-18T01:53:49.625Z,17.34
2022-10-18T01:56:43.816Z,17.33
2022-10-18T01:59:34.419Z,17.36
2022-10-18T02:02:15.594Z,17.36
2022-10-18T02:04:52.085Z,17.36
2022-10-18T02:07:30.600Z,17.34
2022-10-18T02:10:09.703Z,17.34
2022-10-18T02:12:41.395Z,17.33
2022-10-18T02:15:14.190Z,17.30
2022-10-18T02:17:46.453Z,17.26
2022-10-18T02:20:19.017Z,17.22
2022-10-18T02:22:50.485Z,17.17
2022-10-18T02:25:23.899Z,17.11
2022-10-18T02:27:56.260Z,17.06
2022-10-18T02:30:32.411Z,17.04
2022-10-18T02:33:10.587Z,17.02
2022-10-18T02:35:45.932Z,17.03
2022-10-18T02:38:17.723Z,17.06
2022-10-18T02:40:45.927Z,17.09
2022-10-18T02:43:15.750Z,17.13
2022-10-18T02:45:44.736Z,17.15
2022-10-18T02:48:14.336Z,17.18
2022-10-18T02:50:42.909Z,17.20
2022-10-18T02:53:11.588Z,17.23
2022-10-18T02:55:40.155Z,17.24
2022-10-18T02:58:08.637Z,17.26
2022-10-18T03:00:37.285Z,17.27
2022-10-18T03:03:05.590Z,17.31
2022-10-18T03:05:35.400Z,17.30
2022-10-18T03:08:03.997Z,17.29
2022-10-18T03:10:32.700Z,17.27
2022-10-18T03:13:01.392Z,17.24
2022-10-18T03:15:29.890Z,17.21
2022-10-18T03:17:58.338Z,17.16
2022-10-18T03:20:26.719Z,17.10
2022-10-18T03:22:56.631Z,17.06
2022-10-18T03:25:25.188Z,17.04
2022-10-18T03:27:53.671Z,17.04
2022-10-18T03:30:22.206Z,17.03
2022-10-18T03:32:50.388Z,17.02
2022-10-18T03:35:18.823Z,17.03
2022-10-18T03:37:47.172Z,17.04
2022-10-18T03:40:17.019Z,17.03
2022-10-18T03:42:45.623Z,17.05
2022-10-18T03:45:14.222Z,17.04
2022-10-18T03:47:42.526Z,17.06
2022-10-18T03:50:11.173Z,17.09
2022-10-18T03:52:39.763Z,17.08
2022-10-18T03:55:09.123Z,17.11
2022-10-18T03:57:38.868Z,17.11
2022-10-18T04:00:09.467Z,17.10
2022-10-18T04:02:40.726Z,17.09
2022-10-18T04:05:10.207Z,17.08
2022-10-18T04:07:38.657Z,17.08
2022-10-18T04:10:08.444Z,17.09
2022-10-18T04:12:38.319Z,17.10
2022-10-18T04:15:08.077Z,17.10
2022-10-18T04:17:36.253Z,17.11
2022-10-18T04:20:04.772Z,17.11
2022-10-18T04:22:33.254Z,17.12
2022-10-18T04:25:01.449Z,17.10
2022-10-18T04:27:30.085Z,17.09
2022-10-18T04:29:59.768Z,17.10
2022-10-18T04:32:29.349Z,17.10
2022-10-18T04:34:57.860Z,17.10
2022-10-18T04:37:26.345Z,17.09
2022-10-18T04:39:54.849Z,17.07
2022-10-18T04:42:23.154Z,17.05
2022-10-18T04:44:51.416Z,17.05
2022-10-18T04:47:21.232Z,17.03
2022-10-18T04:49:49.746Z,17.00
2022-10-18T04:52:18.228Z,17.00
2022-10-18T04:54:46.943Z,16.98
2022-10-18T04:57:15.209Z,16.98
2022-10-18T04:59:43.413Z,16.97
2022-10-18T05:02:11.969Z,16.96
2022-10-18T05:04:41.524Z,16.95
2022-10-18T05:07:10.134Z,16.95
2022-10-18T05:09:38.357Z,16.93
2022-10-18T05:12:07.071Z,16.93
2022-10-18T05:14:35.645Z,16.93
2022-10-18T05:17:04.195Z,16.94
2022-10-18T05:19:32.726Z,16.91
2022-10-18T05:22:02.348Z,16.87
2022-10-18T05:24:30.919Z,16.85
2022-10-18T05:26:59.274Z,16.86
2022-10-18T05:32:01.708Z,16.88
2022-10-18T05:34:31.973Z,16.84
2022-10-18T05:37:02.218Z,16.81
2022-10-18T05:39:30.752Z,16.80
2022-10-18T05:41:59.867Z,16.80
2022-10-18T05:44:28.424Z,16.79
2022-10-18T05:46:56.655Z,16.77
2022-10-18T05:49:25.181Z,16.78
2022-10-18T05:51:53.630Z,16.77
2022-10-18T05:54:23.270Z,16.79
2022-10-18T05:56:51.501Z,16.80
2022-10-18T05:59:19.999Z,16.82
2022-10-18T06:01:48.489Z,16.83
2022-10-18T06:04:17.923Z,16.81
2022-10-18T06:06:46.453Z,16.79
2022-10-18T06:09:15.059Z,16.78
2022-10-18T06:11:44.661Z,16.75
2022-10-18T06:14:13.348Z,16.73
2022-10-18T06:16:41.908Z,16.73
2022-10-18T06:19:10.450Z,16.73
2022-10-18T06:21:38.682Z,16.74
2022-10-18T06:24:07.829Z,16.75
2022-10-18T06:26:36.348Z,16.77
2022-10-18T06:29:06.160Z,16.83
2022-10-18T06:31:34.429Z,16.86
2022-10-18T06:34:02.908Z,16.87
2022-10-18T06:36:31.412Z,16.92
2022-10-18T06:39:00.022Z,16.95
2022-10-18T06:41:28.642Z,17.00
2022-10-18T06:44:08.766Z,17.01
2022-10-18T06:46:38.505Z,17.02
2022-10-18T06:49:07.025Z,17.06
2022-10-18T06:51:35.589Z,17.07
2022-10-18T06:54:17.633Z,17.08
2022-10-18T06:56:47.314Z,17.09
2022-10-18T06:59:16.011Z,17.07
2022-10-18T07:01:45.633Z,17.06
2022-10-18T07:04:14.158Z,17.06
2022-10-18T07:06:42.701Z,17.06
2022-10-18T07:09:11.316Z,17.07
2022-10-18T07:11:40.195Z,17.06
2022-10-18T07:14:12.543Z,17.07
2022-10-18T07:16:45.310Z,17.06
2022-10-18T07:19:14.881Z,17.07
2022-10-18T07:21:43.363Z,17.09
2022-10-18T07:24:11.841Z,17.09
2022-10-18T07:26:40.033Z,17.12
2022-10-18T07:29:11.595Z,17.15
2022-10-18T07:31:40.876Z,17.21
2022-10-18T07:34:14.388Z,17.23
2022-10-18T07:36:43.149Z,17.25
2022-10-18T07:39:11.647Z,17.32
2022-10-18T07:41:40.264Z,17.44
2022-10-18T07:44:09.021Z,17.54
2022-10-18T07:46:37.337Z,17.63
2022-10-18T07:49:05.663Z,17.70
2022-10-18T07:51:36.032Z,17.74
2022-10-18T07:54:04.703Z,17.78
2022-10-18T07:56:33.272Z,17.84
2022-10-18T07:59:01.837Z,17.89
2022-10-18T08:01:30.485Z,17.96
2022-10-18T08:04:06.110Z,18.09
2022-10-18T08:06:36.703Z,18.21
2022-10-18T08:09:05.619Z,18.32
2022-10-18T08:11:34.162Z,18.42
2022-10-18T08:14:02.659Z,18.51
2022-10-18T08:19:01.828Z,18.78
2022-10-18T08:21:30.324Z,19.05
2022-10-18T08:23:59.920Z,19.38
2022-10-18T08:26:28.421Z,19.75
2022-10-18T08:29:17.771Z,20.12
2022-10-18T08:31:45.264Z,20.38
2022-10-18T08:34:18.628Z,20.41
2022-10-18T08:36:48.286Z,20.34
2022-10-18T08:39:17.865Z,20.26
2022-10-18T08:42:15.269Z,20.14
2022-10-18T08:44:47.298Z,20.01
2022-10-18T08:47:19.799Z,19.99
2022-10-18T08:49:52.595Z,20.28
2022-10-18T08:52:33.418Z,20.83
2022-10-18T08:55:09.901Z,21.15
2022-10-18T08:57:38.457Z,21.53
2022-10-18T09:00:16.006Z,22.15
2022-10-18T09:03:13.781Z,22.87
2022-10-18T09:05:50.150Z,23.62
2022-10-18T09:08:43.181Z,24.38
2022-10-18T09:11:28.420Z,25.01
2022-10-18T09:14:53.172Z,25.68
2022-10-18T09:17:33.086Z,25.54
2022-10-18T09:20:22.973Z,25.27
2022-10-18T09:22:57.780Z,24.97
2022-10-18T09:25:35.331Z,24.77
2022-10-18T09:28:20.267Z,24.62
2022-10-18T09:30:59.782Z,24.48
2022-10-18T09:33:44.876Z,24.28
2022-10-18T09:36:20.292Z,24.07
2022-10-18T09:38:53.300Z,23.91
2022-10-18T09:41:26.813Z,23.93
2022-10-18T09:44:02.361Z,24.11
2022-10-18T09:46:35.029Z,24.30
2022-10-18T09:49:06.886Z,24.30
2022-10-18T09:51:38.022Z,24.24
2022-10-18T09:54:22.787Z,24.22
2022-10-18T09:56:58.442Z,24.12
2022-10-18T09:59:37.513Z,24.03
2022-10-18T10:02:07.008Z,23.90
2022-10-18T10:04:35.288Z,23.79
2022-10-18T10:07:08.090Z,23.72
2022-10-18T10:09:45.054Z,23.60
2022-10-18T10:12:29.023Z,23.38
2022-10-18T10:15:18.783Z,23.24
2022-10-18T10:17:55.992Z,23.16
2022-10-18T10:20:27.901Z,23.04
2022-10-18T10:23:05.974Z,23.00
2022-10-18T10:25:37.972Z,22.98
2022-10-18T10:28:14.223Z,22.92
2022-10-18T10:30:43.937Z,22.81
2022-10-18T10:33:35.148Z,22.70
2022-10-18T10:36:06.884Z,22.61
2022-10-18T10:38:35.157Z,22.53
2022-10-18T10:41:03.416Z,22.47
2022-10-18T10:43:39.673Z,22.47
2022-10-18T10:46:13.322Z,22.49
2022-10-18T10:48:49.366Z,22.53
2022-10-18T10:51:29.764Z,22.58
2022-10-18T10:54:03.196Z,22.64
2022-10-18T10:56:34.468Z,22.66
2022-10-18T10:59:14.147Z,22.72
2022-10-18T11:01:43.933Z,22.82
2022-10-18T11:04:29.102Z,22.82
2022-10-18T11:07:07.810Z,22.73
2022-10-18T11:10:02.452Z,22.74
2022-10-18T11:12:35.534Z,22.76
2022-10-18T11:15:18.383Z,22.76
2022-10-18T11:18:02.681Z,22.72
2022-10-18T11:20:36.358Z,22.67
2022-10-18T11:23:09.401Z,22.60
2022-10-18T11:25:52.254Z,22.51
2022-10-18T11:28:36.762Z,22.42
2022-10-18T11:31:16.183Z,22.26
2022-10-18T11:34:10.580Z,22.09
2022-10-18T11:36:57.847Z,21.94
2022-10-18T11:39:50.827Z,21.77
2022-10-18T11:42:30.986Z,21.64
2022-10-18T11:45:16.111Z,21.51
2022-10-18T11:47:52.270Z,21.39
2022-10-18T11:50:35.427Z,21.29
2022-10-18T11:53:21.171Z,21.27
2022-10-18T11:56:04.833Z,21.26
2022-10-18T11:58:57.961Z,21.25
2022-10-18T12:01:34.973Z,21.23
2022-10-18T12:04:10.304Z,21.25
2022-10-18T12:06:42.672Z,21.35
2022-10-18T12:09:24.501Z,21.50
2022-10-18T12:11:59.498Z,21.69
2022-10-18T12:14:31.853Z,21.91
2022-10-18T12:17:39.639Z,22.17
2022-10-18T12:19:58.491Z,22.44
2022-10-18T12:22:35.653Z,22.67
2022-10-18T12:25:04.193Z,22.70
2022-10-18T12:27:41.966Z,22.65
2022-10-18T12:30:24.357Z,22.54
2022-10-18T12:33:26.665Z,22.40
2022-10-18T12:36:07.168Z,22.23
2022-10-18T12:38:40.609Z,22.18
2022-10-18T12:41:17.732Z,22.16
2022-10-18T12:43:54.115Z,22.25
2022-10-18T12:46:23.113Z,22.38
2022-10-18T12:49:04.806Z,22.52
2022-10-18T12:51:33.478Z,22.76
2022-10-18T12:54:13.161Z,22.97
2022-10-18T12:56:43.024Z,23.12
2022-10-18T12:59:42.059Z,23.21
2022-10-18T13:02:27.427Z,23.21
2022-10-18T13:05:00.376Z,23.14
2022-10-18T13:07:43.142Z,23.12
2022-10-18T13:10:44.933Z,23.16
2022-10-18T13:13:50.543Z,23.20
2022-10-18T13:16:39.960Z,23.32
2022-10-18T13:19:23.160Z,23.46
2022-10-18T13:22:11.791Z,23.41
2022-10-18T13:24:45.282Z,23.38
2022-10-18T13:27:35.965Z,23.67
2022-10-18T13:30:47.964Z,24.26
2022-10-18T13:33:34.087Z,24.55
2022-10-18T13:36:06.243Z,24.68
2022-10-18T13:38:48.430Z,24.74
2022-10-18T13:41:20.412Z,24.68
2022-10-18T13:44:26.009Z,24.63
2022-10-18T13:47:35.197Z,24.53
2022-10-18T13:50:37.369Z,24.37
2022-10-18T13:53:44.050Z,24.23
2022-10-18T13:56:37.744Z,24.09
2022-10-18T13:59:32.789Z,23.94
2022-10-18T14:02:59.651Z,23.76
2022-10-18T14:05:52.083Z,23.61
2022-10-18T14:08:26.254Z,23.49
2022-10-18T14:11:04.158Z,23.35
2022-10-18T14:13:46.425Z,23.21
2022-10-18T14:16:36.057Z,23.04
2022-10-18T14:19:18.096Z,22.92
2022-10-18T14:21:56.679Z,22.85
2022-10-18T14:24:27.528Z,22.81
2022-10-18T14:27:18.936Z,22.79
2022-10-18T14:29:47.704Z,22.74
2022-10-18T14:32:28.010Z,22.73
2022-10-18T14:35:27.229Z,22.67
2022-10-18T14:37:47.803Z,22.57
2022-10-18T14:40:37.898Z,22.48
2022-10-18T14:43:12.531Z,22.36
2022-10-18T14:45:41.816Z,22.24
2022-10-18T14:48:17.276Z,22.17
2022-10-18T14:50:50.076Z,22.11
2022-10-18T14:53:22.027Z,22.07
2022-10-18T14:56:00.727Z,22.01
2022-10-18T14:58:29.504Z,21.96
2022-10-18T15:00:58.381Z,21.91
2022-10-18T15:03:28.548Z,21.88
2022-10-18T15:06:00.731Z,21.84
2022-10-18T15:08:37.151Z,21.79
2022-10-18T15:11:10.499Z,21.74
2022-10-18T15:13:50.409Z,21.69
2022-10-18T15:16:20.180Z,21.63
2022-10-18T15:19:03.899Z,21.58
2022-10-18T15:21:33.136Z,21.53
2022-10-18T15:24:22.391Z,21.49
2022-10-18T15:26:52.769Z,21.46
2022-10-18T15:29:24.707Z,21.42
2022-10-18T15:31:53.526Z,21.40
2022-10-18T15:34:25.822Z,21.37
2022-10-18T15:36:56.772Z,21.31
2022-10-18T15:39:28.137Z,21.17
2022-10-18T15:41:58.174Z,21.04
2022-10-18T15:44:31.589Z,20.91
2022-10-18T15:47:20.599Z,20.80
2022-10-18T15:49:56.893Z,20.71
2022-10-18T15:52:39.178Z,20.62
2022-10-18T15:55:58.333Z,20.51
2022-10-18T15:58:31.895Z,20.38
2022-10-18T16:01:04.323Z,20.29
2022-10-18T16:03:35.550Z,20.20
2022-10-18T16:06:09.935Z,20.12
2022-10-18T16:08:42.313Z,20.02
2022-10-18T16:11:16.408Z,19.94
2022-10-18T16:13:45.311Z,19.90
2022-10-18T16:16:17.984Z,19.89
2022-10-18T16:18:46.634Z,19.88
2022-10-18T16:21:20.949Z,19.82
2022-10-18T16:23:50.287Z,19.78
2022-10-18T16:26:20.464Z,19.75
2022-10-18T16:28:50.242Z,19.70
2022-10-18T16:31:22.198Z,19.64
2022-10-18T16:33:51.897Z,19.58
2022-10-18T16:36:24.226Z,19.52
2022-10-18T16:38:55.015Z,19.45
2022-10-18T16:41:23.677Z,19.36
2022-10-18T16:43:52.274Z,19.29
2022-10-18T16:46:23.428Z,19.23
2022-10-18T16:48:52.769Z,19.16
2022-10-18T16:51:22.476Z,19.09
2022-10-18T16:53:53.256Z,19.04
2022-10-18T16:56:25.359Z,18.96
2022-10-18T16:58:54.687Z,18.90
2022-10-18T17:01:25.146Z,18.83
2022-10-18T17:03:55.258Z,18.76
2022-10-18T17:06:27.399Z,18.71
2022-10-18T17:08:56.939Z,18.68
2022-10-18T17:11:28.275Z,18.65
2022-10-18T17:13:58.176Z,18.61
2022-10-18T17:19:06.279Z,18.50
2022-10-18T17:21:36.207Z,18.47
2022-10-18T17:24:06.144Z,18.44
2022-10-18T17:26:34.817Z,18.43
2022-10-18T17:29:08.095Z,18.42
2022-10-18T17:31:36.857Z,18.39
2022-10-18T17:34:05.310Z,18.33
2022-10-18T17:36:35.768Z,18.30
2022-10-18T17:39:04.823Z,18.30
2022-10-18T17:41:33.326Z,18.31
2022-10-18T17:44:04.019Z,18.30
2022-10-18T17:46:32.524Z,18.30
2022-10-18T17:49:01.018Z,18.30
2022-10-18T17:51:29.602Z,18.30
2022-10-18T17:53:59.117Z,18.30
2022-10-18T17:56:32.853Z,18.29
2022-10-18T17:59:01.232Z,18.24
2022-10-18T18:01:29.721Z,18.21
2022-10-18T18:03:59.985Z,18.17
2022-10-18T18:06:31.979Z,18.13
2022-10-18T18:09:06.876Z,18.08
2022-10-18T18:11:35.512Z,18.03
2022-10-18T18:14:08.849Z,17.98
2022-10-18T18:16:38.676Z,17.93
2022-10-18T18:19:09.804Z,17.89
2022-10-18T18:21:39.341Z,17.84
2022-10-18T18:24:10.795Z,17.81
2022-10-18T18:26:40.980Z,17.77
2022-10-18T18:29:09.524Z,17.75
2022-10-18T18:31:40.259Z,17.71
2022-10-18T18:34:11.392Z,17.67
2022-10-18T18:36:40.227Z,17.60
2022-10-18T18:39:17.437Z,17.55
2022-10-18T18:41:46.048Z,17.49
2022-10-18T18:44:14.527Z,17.46
2022-10-18T18:46:42.802Z,17.39
2022-10-18T18:49:12.535Z,17.33
2022-10-18T18:51:41.755Z,17.29
2022-10-18T18:54:13.811Z,17.26
2022-10-18T18:56:43.520Z,17.22
2022-10-18T18:59:15.416Z,17.20
2022-10-18T19:01:44.235Z,17.14
2022-10-18T19:04:12.641Z,17.11
2022-10-18T19:06:43.333Z,17.08
2022-10-18T19:09:19.407Z,17.05
2022-10-18T19:11:49.358Z,16.99
2022-10-18T19:14:17.817Z,16.98
2022-10-18T19:16:50.417Z,16.95
2022-10-18T19:19:20.788Z,16.93
2022-10-18T19:21:52.291Z,16.91
2022-10-18T19:24:23.599Z,16.88
2022-10-18T19:26:53.940Z,16.87
2022-10-18T19:29:25.197Z,16.85
2022-10-18T19:31:56.669Z,16.82
2022-10-18T19:34:27.408Z,16.80
2022-10-18T19:36:56.306Z,16.78
2022-10-18T19:39:27.966Z,16.77
2022-10-18T19:41:59.006Z,16.76
2022-10-18T19:44:31.848Z,16.74
2022-10-18T19:47:00.612Z,16.72
2022-10-18T19:49:29.142Z,16.70
2022-10-18T19:51:58.258Z,16.64
2022-10-18T19:54:28.192Z,16.59
2022-10-18T19:56:56.754Z,16.55
2022-10-18T19:59:25.876Z,16.51
2022-10-18T20:01:54.502Z,16.49
2022-10-18T20:04:23.006Z,16.44
2022-10-18T20:06:52.340Z,16.42
2022-10-18T20:09:22.654Z,16.40
2022-10-18T20:11:52.240Z,16.40
2022-10-18T20:14:21.153Z,16.39
2022-10-18T20:16:49.854Z,16.36
2022-10-18T20:19:18.367Z,16.34
2022-10-18T20:21:46.865Z,16.33
2022-10-18T20:24:15.426Z,16.33
2022-10-18T20:26:44.100Z,16.34
2022-10-18T20:29:13.882Z,16.37
2022-10-18T20:31:42.198Z,16.37
2022-10-18T20:34:13.265Z,16.37
2022-10-18T20:36:42.872Z,16.37
2022-10-18T20:39:11.393Z,16.38
2022-10-18T20:41:41.666Z,16.39
2022-10-18T20:44:16.622Z,16.38
2022-10-18T20:46:45.991Z,16.36
2022-10-18T20:49:16.937Z,16.36
2022-10-18T20:51:45.775Z,16.34
2022-10-18T20:54:14.392Z,16.34
2022-10-18T20:56:42.869Z,16.33
2022-10-18T20:59:11.506Z,16.32
2022-10-18T21:01:41.182Z,16.30
2022-10-18T21:04:11.340Z,16.28
2022-10-18T21:06:42.149Z,16.27
2022-10-18T21:09:13.665Z,16.24
2022-10-18T21:11:44.800Z,16.22
2022-10-18T21:14:15.574Z,16.20
2022-10-18T21:16:45.733Z,16.18
2022-10-18T21:19:17.134Z,16.15
2022-10-18T21:21:49.509Z,16.13
2022-10-18T21:24:19.325Z,16.10
2022-10-18T21:26:48.745Z,16.07
2022-10-18T21:29:21.975Z,16.04
2022-10-18T21:31:57.984Z,16.01
2022-10-18T21:34:27.280Z,15.94
2022-10-18T21:36:55.523Z,15.95
2022-10-18T21:39:25.276Z,15.92
2022-10-18T21:41:53.528Z,15.90
2022-10-18T21:44:22.086Z,15.88
2022-10-18T21:46:51.727Z,15.86
2022-10-18T21:49:20.284Z,15.83
2022-10-18T21:51:48.766Z,15.75
2022-10-18T21:54:18.311Z,15.69
2022-10-18T21:56:46.542Z,15.62
2022-10-18T21:59:15.528Z,15.59
2022-10-18T22:01:45.065Z,15.55
2022-10-18T22:04:23.588Z,15.50
2022-10-18T22:06:52.410Z,15.45
2022-10-18T22:09:22.268Z,15.41
2022-10-18T22:11:53.994Z,15.37
2022-10-18T22:14:22.710Z,15.31
2022-10-18T22:16:51.715Z,15.26
2022-10-18T22:19:21.391Z,15.19
2022-10-18T22:21:50.063Z,15.14
2022-10-18T22:24:19.133Z,15.09
2022-10-18T22:26:47.746Z,15.06
2022-10-18T22:29:19.670Z,15.03
2022-10-18T22:31:50.437Z,15.03
2022-10-18T22:34:22.512Z,15.01
2022-10-18T22:36:51.621Z,14.99
2022-10-18T22:39:20.346Z,14.96
2022-10-18T22:41:52.051Z,14.94
2022-10-18T22:44:20.599Z,14.94
2022-10-18T22:46:49.199Z,14.98
2022-10-18T22:49:17.618Z,15.03
2022-10-18T22:51:47.175Z,15.11
2022-10-18T22:54:15.796Z,15.17
2022-10-18T22:56:44.101Z,15.23
2022-10-18T22:59:12.680Z,15.28
2022-10-18T23:01:40.853Z,15.29
2022-10-18T23:04:09.245Z,15.33
2022-10-18T23:06:38.025Z,15.37
2022-10-18T23:09:11.193Z,15.40
2022-10-18T23:11:39.609Z,15.40
2022-10-18T23:14:08.455Z,15.40
2022-10-18T23:16:37.068Z,15.40
2022-10-18T23:19:05.599Z,15.37
2022-10-18T23:21:35.308Z,15.31
2022-10-18T23:24:03.614Z,15.27
2022-10-18T23:26:33.875Z,15.23
2022-10-18T23:29:02.447Z,15.19
2022-10-18T23:31:34.021Z,15.15
2022-10-18T23:34:06.043Z,15.11
2022-10-18T23:36:35.345Z,15.06
2022-10-18T23:39:04.330Z,15.03
2022-10-18T23:41:34.128Z,15.00
2022-10-18T23:44:02.734Z,14.99
2022-10-18T23:46:31.287Z,14.96
2022-10-18T23:48:59.851Z,14.94
2022-10-18T23:51:28.398Z,14.91
2022-10-18T23:53:56.899Z,14.88
2022-10-18T23:56:25.093Z,14.86
2022-10-18T23:58:54.697Z,14.85
